Forside
METAR-TAF:

METAR-TAF

Lufthavne :

Decorah Municipal Airport

Decorah, Iowa, USA

Breddekreds: 43-17N, længdekreds: 091-44W, højde: 353 m

Aktuelle vejr

Denne rapport blev lavet for 22 minutter siden, kl. 08:55 UTC
Vind 3 kt fra varierende retninger
Temperatur -7°C
Fugtighed 93%
Tryk 1015 hPa
Sigt: 12.9 km
Overskyet i en højde af 1100 ft

METAR: KDEH 130855Z AUTO VRB03KT 8SM OVC011 M07/M08 A2997 RMK AO2

Tid: 03:17 (09:17 UTC)


TAF: fraværende

Vejrobservationer og prognoser fra mere end 4000 lufthavne (METAR og TAF).

De gule og røde prikker repræsenterer de meteorologiske stationer.

Flyt musen over at se navnet på stationen.

Så klik over at se vejr observationer og prognoser.

At skifte det kort: Klik på de grønne knapper med et sort kors for at zoome ind; på den grønne knap med en bindestreg for at zoome ud; eller på de grønne pile for tilstødende kort.


METAR-TAF: